Darstellungsparameter: Aktuell verwendete Einstellungen:
Skalierung der Graphiken ... ?
xyx+y,   Skalierungsfaktor:      Skalierung: Modus: x, Faktor: 1
Darstellungszeitraum ... ?
Vom - - bis: - -   Zeitraum: 19.05.2014 - 01.06.2014
Min/Max/Avg-Anzeige ... ?
Zeige MMA aktuell
Zeige MMA Monat
Zeige MMA alles
Zeige --A aktuell
Zeige --A Monat
Zeige --A alles
Keine MMA-Anzeige
MMA:
Keine MMA-Graphiken
MMA-Basis: 19.05.2014 - 01.06.2014
Quicknavigation für Darstellung... ?
Tage:      1T, 2T, 3T, 5T -1T -2T -3T -5T +1T +2T +3T +5T
Wochen: 1W, 2W, 3W -1W -2W -3W +1W +2W +3W
Monate: 1M, 3M, 6M -1M -3M -6M +1M +3M +6M
Jahre:    1J, 3J, 5J, 10J -1J -3J -5J -10J +1J +3J +5J +10J
Nutze für die Darstellung ... ?
Originaldaten oder ...
Mittelwerte Minima Maxima auf...
Stundenbasis Tagesbasis Wochenbasis
Monatsbasis Jahresbasis      Datenbasis: Mittelwerte auf Stundenbasis
Darstellen als:
Statistik (Auto) Statistik J:M      Darstellung:
Zur Graphik,    zurück zur Übersicht aller Sensoren.
 
Tabellarische Datenbersicht: ?
 
Sensor: Nr:Datum:Temp:Abs-Feuchte:Windchill:Wind:
Aussen-T/F 1 19-05-2014 00:00:00 12.725 C 9.46 g/m*3 12.73 C 0.66667 km/h
2 19-05-2014 01:00:00 12.51667 C 9.53 g/m*3 12.52 C 0.13333 km/h
3 19-05-2014 02:00:00 11.70833 C 9.32 g/m*3 11.71 C 0.13333 km/h
4 19-05-2014 03:00:00 11.08333 C 9.16 g/m*3 11.08 C 0 km/h
5 19-05-2014 04:00:00 10.46667 C 8.93 g/m*3 10.47 C 0 km/h
6 19-05-2014 05:00:00 9.85833 C 8.71 g/m*3 9.86 C 0 km/h
7 19-05-2014 06:00:00 9.525 C 8.63 g/m*3 9.53 C 0.13333 km/h
8 19-05-2014 07:00:00 9.875 C 8.86 g/m*3 9.88 C 0 km/h
9 19-05-2014 08:00:00 12.1 C 9.78 g/m*3 12.1 C 0 km/h
10 19-05-2014 09:00:00 13.45833 C 10.4 g/m*3 13.46 C 0 km/h
11 19-05-2014 10:00:00 16.75833 C 11.55 g/m*3 16.76 C 2 km/h
12 19-05-2014 11:00:00 21.55 C 11.41 g/m*3 21.55 C 5.89167 km/h
13 19-05-2014 12:00:00 23.2 C 11.17 g/m*3 23.2 C 7.125 km/h
14 19-05-2014 13:00:00 22.89167 C 11.44 g/m*3 22.89 C 4.68333 km/h
15 19-05-2014 14:00:00 23.06667 C 11.54 g/m*3 23.07 C 4.15 km/h
16 19-05-2014 15:00:00 23.99167 C 11.07 g/m*3 23.99 C 3.6 km/h
17 19-05-2014 16:00:00 26.175 C 9.85 g/m*3 26.18 C 8.33333 km/h
18 19-05-2014 17:00:00 27.46667 C 8.58 g/m*3 27.47 C 10.625 km/h
19 19-05-2014 18:00:00 27.44167 C 8.83 g/m*3 27.44 C 8.45833 km/h
20 19-05-2014 19:00:00 25.81667 C 9.2 g/m*3 25.82 C 8.45833 km/h
21 19-05-2014 20:00:00 21.14167 C 10.96 g/m*3 21.14 C 2.8 km/h
22 19-05-2014 21:00:00 17.7 C 10.91 g/m*3 17.7 C 1.2 km/h
23 19-05-2014 22:00:00 16.20833 C 10.28 g/m*3 16.21 C 0.4 km/h
24 19-05-2014 23:00:00 15 C 10.39 g/m*3 15 C 0.66667 km/h
25 20-05-2014 00:00:00 13.925 C 10.28 g/m*3 13.93 C 0.13333 km/h
Sensor: Nr:Datum:Temp:Abs-Feuchte:Windchill:Wind:
Aussen-T/F 26 20-05-2014 01:00:00 12.89167 C 9.99 g/m*3 12.89 C 0 km/h
27 20-05-2014 02:00:00 12.88333 C 10.19 g/m*3 12.88 C 0 km/h
28 20-05-2014 03:00:00 12.55833 C 10.04 g/m*3 12.56 C 0 km/h
29 20-05-2014 04:00:00 11.875 C 9.75 g/m*3 11.88 C 0 km/h
30 20-05-2014 05:00:00 11.69167 C 9.77 g/m*3 11.69 C 0 km/h
31 20-05-2014 06:00:00 12.15 C 10.08 g/m*3 12.15 C 0.93333 km/h
32 20-05-2014 07:00:00 13.25833 C 10.43 g/m*3 13.26 C 0.93333 km/h
33 20-05-2014 08:00:00 14.85833 C 10.88 g/m*3 14.86 C 5.09167 km/h
34 20-05-2014 09:00:00 16.98333 C 11.3 g/m*3 16.98 C 3.33333 km/h
35 20-05-2014 10:00:00 20.11667 C 12.08 g/m*3 20.12 C 3.33333 km/h
36 20-05-2014 11:00:00 22.71667 C 11.43 g/m*3 22.72 C 9.025 km/h
37 20-05-2014 12:00:00 24.49167 C 10.89 g/m*3 24.49 C 9.68333 km/h
38 20-05-2014 13:00:00 26 C 10.51 g/m*3 26 C 9.425 km/h
39 20-05-2014 14:00:00 27.75 C 10.64 g/m*3 27.75 C 7.125 km/h
40 20-05-2014 15:00:00 28.93333 C 9.09 g/m*3 28.93 C 7.925 km/h
41 20-05-2014 16:00:00 29.26667 C 9.62 g/m*3 29.27 C 7.5 km/h
42 20-05-2014 17:00:00 28.43333 C 10.26 g/m*3 28.43 C 6.56667 km/h
43 20-05-2014 18:00:00 27.13333 C 11.56 g/m*3 27.13 C 3.06667 km/h
44 20-05-2014 19:00:00 23.18333 C 12.48 g/m*3 23.18 C 0.4 km/h
45 20-05-2014 20:00:00 20.575 C 11.13 g/m*3 20.58 C 1.6 km/h
46 20-05-2014 21:00:00 19.03333 C 10.68 g/m*3 19.03 C 1.46667 km/h
47 20-05-2014 22:00:00 18.375 C 10.56 g/m*3 18.38 C 1.73333 km/h
48 20-05-2014 23:00:00 18.09167 C 10.63 g/m*3 18.09 C 1.2 km/h
49 21-05-2014 00:00:00 17.25833 C 10.56 g/m*3 17.26 C 0.8 km/h
50 21-05-2014 01:00:00 16.9 C 10.72 g/m*3 16.9 C 0.4 km/h
Sensor: Nr:Datum:Temp:Abs-Feuchte:Windchill:Wind:
Aussen-T/F 51 21-05-2014 02:00:00 15.375 C 10.51 g/m*3 15.38 C 0 km/h
52 21-05-2014 03:00:00 14.775 C 10.66 g/m*3 14.78 C 0 km/h
53 21-05-2014 04:00:00 14 C 10.49 g/m*3 14 C 0 km/h
54 21-05-2014 05:00:00 13.71667 C 10.41 g/m*3 13.72 C 0 km/h
55 21-05-2014 06:00:00 14.31667 C 10.77 g/m*3 14.32 C 0.4 km/h
56 21-05-2014 07:00:00 15.25833 C 11.25 g/m*3 15.26 C 0.8 km/h
57 21-05-2014 08:00:00 16.8 C 11.63 g/m*3 16.8 C 0.53333 km/h
58 21-05-2014 09:00:00 18.10833 C 12.32 g/m*3 18.11 C 0 km/h
59 21-05-2014 10:00:00 20.74167 C 13.02 g/m*3 20.74 C 1.86667 km/h
60 21-05-2014 11:00:00 21.95 C 12.34 g/m*3 21.95 C 2.53333 km/h
61 21-05-2014 12:00:00 24.23333 C 11.56 g/m*3 24.23 C 5.08333 km/h
62 21-05-2014 13:00:00 25.46667 C 11.15 g/m*3 25.47 C 8.075 km/h
63 21-05-2014 14:00:00 26.53333 C 11.14 g/m*3 26.53 C 7.925 km/h
64 21-05-2014 15:00:00 27.74167 C 11.89 g/m*3 27.74 C 8.33333 km/h
65 21-05-2014 16:00:00 27.31667 C 11.79 g/m*3 27.32 C 4 km/h
66 21-05-2014 17:00:00 24.29167 C 14.05 g/m*3 24.29 C 0.4 km/h
67 21-05-2014 18:00:00 23.30833 C 14.28 g/m*3 23.31 C 0.8 km/h
68 21-05-2014 19:00:00 25.425 C 12.57 g/m*3 25.43 C 4.00833 km/h
69 21-05-2014 20:00:00 23.79167 C 12.63 g/m*3 23.79 C 1.33333 km/h
70 21-05-2014 21:00:00 20.45 C 11.69 g/m*3 20.45 C 1.33333 km/h
71 21-05-2014 22:00:00 19.8 C 11.71 g/m*3 19.8 C 1.86667 km/h
72 21-05-2014 23:00:00 19.59167 C 11.28 g/m*3 19.59 C 2 km/h
73 22-05-2014 00:00:00 19.39167 C 11.13 g/m*3 19.39 C 1.46667 km/h
74 22-05-2014 01:00:00 19.01667 C 10.86 g/m*3 19.02 C 2.94167 km/h
75 22-05-2014 02:00:00 21.13333 C 11.08 g/m*3 21.13 C 3.89167 km/h
Sensor: Nr:Datum:Temp:Abs-Feuchte:Windchill:Wind:
Aussen-T/F 76 22-05-2014 03:00:00 20.43333 C 11.61 g/m*3 20.43 C 6.30833 km/h
77 22-05-2014 04:00:00 19.21667 C 12.17 g/m*3 19.22 C 2.66667 km/h
78 22-05-2014 05:00:00 17.43333 C 11.85 g/m*3 17.43 C 0.53333 km/h
79 22-05-2014 06:00:00 16.69167 C 11.65 g/m*3 16.69 C 0.8 km/h
80 22-05-2014 07:00:00 17.25 C 11.74 g/m*3 17.25 C 0.66667 km/h
81 22-05-2014 08:00:00 17.38333 C 11.71 g/m*3 17.38 C 1.875 km/h
82 22-05-2014 09:00:00 19.31667 C 9.96 g/m*3 19.32 C 9.68333 km/h
83 22-05-2014 10:00:00 21.26667 C 9.38 g/m*3 21.27 C 7.925 km/h
84 22-05-2014 11:00:00 23.16667 C 9.23 g/m*3 23.17 C 7.38333 km/h
85 22-05-2014 12:00:00 24.825 C 9.14 g/m*3 24.83 C 6.01667 km/h
86 22-05-2014 13:00:00 26.1 C 10.53 g/m*3 26.1 C 5.21667 km/h
87 22-05-2014 14:00:00 26.76667 C 10.33 g/m*3 26.77 C 9.25833 km/h
88 22-05-2014 15:00:00 27.25833 C 10.2 g/m*3 27.26 C 10.63333 km/h
89 22-05-2014 16:00:00 27.74167 C 10.19 g/m*3 27.74 C 7.8 km/h
90 22-05-2014 17:00:00 25.16667 C 10.42 g/m*3 25.17 C 9.26667 km/h
91 22-05-2014 18:00:00 21.95833 C 11.31 g/m*3 21.96 C 9.8 km/h
92 22-05-2014 19:00:00 16.46667 C 12.03 g/m*3 16.47 C 6.43333 km/h
93 22-05-2014 20:00:00 14.86667 C 11.87 g/m*3 14.87 C 0 km/h
94 22-05-2014 21:00:00 14.55833 C 11.85 g/m*3 14.56 C 1.06667 km/h
95 22-05-2014 22:00:00 14.075 C 11.56 g/m*3 14.08 C 0.53333 km/h
96 22-05-2014 23:00:00 13.75 C 11.4 g/m*3 13.75 C 0 km/h
97 23-05-2014 00:00:00 13.6 C 11.34 g/m*3 13.6 C 0.4 km/h
98 23-05-2014 01:00:00 13.45 C 11.27 g/m*3 13.45 C 0.8 km/h
99 23-05-2014 02:00:00 13.30833 C 11.21 g/m*3 13.31 C 0 km/h
100 23-05-2014 03:00:00 13.23333 C 11.16 g/m*3 13.23 C 0 km/h
Sensor: Nr:Datum:Temp:Abs-Feuchte:Windchill:Wind:
Aussen-T/F 101 23-05-2014 04:00:00 12.95833 C 10.97 g/m*3 12.96 C 0 km/h
102 23-05-2014 05:00:00 12.73333 C 10.83 g/m*3 12.73 C 0 km/h
103 23-05-2014 06:00:00 13.09167 C 11.08 g/m*3 13.09 C 0 km/h
104 23-05-2014 07:00:00 13.4 C 11.36 g/m*3 13.4 C 0 km/h
105 23-05-2014 08:00:00 13.89167 C 11.74 g/m*3 13.89 C 0 km/h
106 23-05-2014 09:00:00 13.96667 C 11.8 g/m*3 13.97 C 0.4 km/h
107 23-05-2014 10:00:00 14.5 C 12.09 g/m*3 14.5 C 2.13333 km/h
108 23-05-2014 11:00:00 15.2 C 12.29 g/m*3 15.2 C 0.8 km/h
109 23-05-2014 12:00:00 16.175 C 12.3 g/m*3 16.18 C 4.675 km/h
110 23-05-2014 13:00:00 17.21667 C 12.15 g/m*3 17.22 C 4.28333 km/h
111 23-05-2014 14:00:00 16.70833 C 12.45 g/m*3 16.71 C 1.73333 km/h
112 23-05-2014 15:00:00 19.01667 C 13.02 g/m*3 19.02 C 5.625 km/h
113 23-05-2014 16:00:00 20.2 C 12.73 g/m*3 20.2 C 6.45 km/h
114 23-05-2014 17:00:00 19.23333 C 13.19 g/m*3 19.23 C 2.275 km/h
115 23-05-2014 18:00:00 19.7 C 12.33 g/m*3 19.7 C 5.78333 km/h
116 23-05-2014 19:00:00 20.34167 C 11.9 g/m*3 20.34 C 5.625 km/h
117 23-05-2014 20:00:00 18.15833 C 12.6 g/m*3 18.16 C 0.8 km/h
118 23-05-2014 21:00:00 15.175 C 11.59 g/m*3 15.18 C 1.2 km/h
119 23-05-2014 22:00:00 14 C 11.1 g/m*3 14 C 0.4 km/h
120 23-05-2014 23:00:00 13.375 C 10.8 g/m*3 13.38 C 0.13333 km/h
121 24-05-2014 00:00:00 12.85 C 10.61 g/m*3 12.85 C 0.13333 km/h
122 24-05-2014 01:00:00 12.31667 C 10.33 g/m*3 12.32 C 0.13333 km/h
123 24-05-2014 02:00:00 11.89167 C 10.14 g/m*3 11.89 C 1.875 km/h
124 24-05-2014 03:00:00 13.75 C 10.4 g/m*3 13.75 C 7.24167 km/h
125 24-05-2014 04:00:00 14.01667 C 9.91 g/m*3 14.02 C 9.275 km/h
Sensor: Nr:Datum:Temp:Abs-Feuchte:Windchill:Wind:
Aussen-T/F 126 24-05-2014 05:00:00 13.39167 C 9.8 g/m*3 13.39 C 2.41667 km/h
127 24-05-2014 06:00:00 12.2 C 10.17 g/m*3 12.2 C 1.475 km/h
128 24-05-2014 07:00:00 12.175 C 10.28 g/m*3 12.18 C 1.86667 km/h
129 24-05-2014 08:00:00 12.69167 C 10.58 g/m*3 12.69 C 1.2 km/h
130 24-05-2014 09:00:00 13.61667 C 11.27 g/m*3 13.62 C 0.66667 km/h
131 24-05-2014 10:00:00 14.61667 C 11.48 g/m*3 14.62 C 7.39167 km/h
132 24-05-2014 11:00:00 14.59167 C 10.71 g/m*3 14.59 C 12.49167 km/h
133 24-05-2014 12:00:00 15.18333 C 10.36 g/m*3 15.18 C 10.61667 km/h
134 24-05-2014 13:00:00 17.00833 C 10.62 g/m*3 17.01 C 10.35833 km/h
135 24-05-2014 14:00:00 17.85833 C 10.12 g/m*3 17.86 C 11.025 km/h
136 24-05-2014 15:00:00 19.05 C 9.74 g/m*3 19.05 C 13.15833 km/h
137 24-05-2014 16:00:00 18.66667 C 9.47 g/m*3 18.67 C 12.76667 km/h
138 24-05-2014 17:00:00 19.575 C 9 g/m*3 19.58 C 14.36667 km/h
139 24-05-2014 18:00:00 18.70833 C 8.74 g/m*3 18.71 C 7.38333 km/h
140 24-05-2014 19:00:00 16.25833 C 9.88 g/m*3 16.26 C 0.93333 km/h
141 24-05-2014 20:00:00 15.70833 C 10.34 g/m*3 15.71 C 2.13333 km/h
142 24-05-2014 21:00:00 13.43333 C 9.72 g/m*3 13.43 C 1.2 km/h
143 24-05-2014 22:00:00 11.9125 C 9.13 g/m*3 11.91 C 0 km/h
144 24-05-2014 23:00:00 11.10833 C 8.83 g/m*3 11.11 C 0 km/h
145 25-05-2014 00:00:00 10.23333 C 8.54 g/m*3 10.23 C 0.26667 km/h
146 25-05-2014 01:00:00 9.43333 C 8.31 g/m*3 9.43 C 0 km/h
147 25-05-2014 02:00:00 8.86667 C 8.12 g/m*3 8.87 C 0 km/h
148 25-05-2014 03:00:00 8.34167 C 7.95 g/m*3 8.34 C 0 km/h
149 25-05-2014 04:00:00 7.89167 C 7.8 g/m*3 7.89 C 0 km/h
150 25-05-2014 05:00:00 7.55 C 7.67 g/m*3 7.55 C 0 km/h
Sensor: Nr:Datum:Temp:Abs-Feuchte:Windchill:Wind:
Aussen-T/F 151 25-05-2014 06:00:00 7.49167 C 7.68 g/m*3 7.49 C 0.53333 km/h
152 25-05-2014 07:00:00 8.04167 C 7.99 g/m*3 8.04 C 2 km/h
153 25-05-2014 08:00:00 10.2 C 8.83 g/m*3 10.2 C 0 km/h
154 25-05-2014 09:00:00 11.85 C 9.57 g/m*3 11.85 C 0.13333 km/h
155 25-05-2014 10:00:00 15.38333 C 10.93 g/m*3 15.38 C 0.93333 km/h
156 25-05-2014 11:00:00 18.48333 C 10.74 g/m*3 18.48 C 3.20833 km/h
157 25-05-2014 12:00:00 21.11667 C 9.33 g/m*3 21.12 C 7.79167 km/h
158 25-05-2014 13:00:00 22.225 C 8.78 g/m*3 22.23 C 7.93333 km/h
159 25-05-2014 14:00:00 23.11667 C 9.48 g/m*3 23.12 C 7.93333 km/h
160 25-05-2014 15:00:00 23.48333 C 9.23 g/m*3 23.48 C 9.675 km/h
161 25-05-2014 16:00:00 23.70833 C 9.52 g/m*3 23.71 C 6.43333 km/h
162 25-05-2014 17:00:00 24.55 C 9.01 g/m*3 24.55 C 3.48333 km/h
163 25-05-2014 18:00:00 23.80833 C 9.52 g/m*3 23.81 C 4.80833 km/h
164 25-05-2014 19:00:00 19.99167 C 11.89 g/m*3 19.99 C 0.53333 km/h
165 25-05-2014 20:00:00 17.58333 C 11.45 g/m*3 17.58 C 0.93333 km/h
166 25-05-2014 21:00:00 16.525 C 10.84 g/m*3 16.52 C 0.8 km/h
167 25-05-2014 22:00:00 15.69167 C 10.55 g/m*3 15.69 C 0.13333 km/h
168 25-05-2014 23:00:00 15.1 C 10.31 g/m*3 15.1 C 0 km/h
169 26-05-2014 00:00:00 14.21667 C 10.07 g/m*3 14.22 C 0 km/h
170 26-05-2014 01:00:00 13.825 C 9.9 g/m*3 13.83 C 0 km/h
171 26-05-2014 02:00:00 13.29167 C 9.86 g/m*3 13.29 C 0 km/h
172 26-05-2014 03:00:00 12.96667 C 9.82 g/m*3 12.97 C 0 km/h
173 26-05-2014 04:00:00 12.78333 C 9.87 g/m*3 12.78 C 0 km/h
174 26-05-2014 05:00:00 13.04167 C 10.01 g/m*3 13.04 C 0 km/h
175 26-05-2014 06:00:00 13.225 C 10.23 g/m*3 13.23 C 0 km/h
Sensor: Nr:Datum:Temp:Abs-Feuchte:Windchill:Wind:
Aussen-T/F 176 26-05-2014 07:00:00 13.53333 C 10.56 g/m*3 13.53 C 0.66667 km/h
177 26-05-2014 08:00:00 14.68333 C 11.11 g/m*3 14.68 C 0.53333 km/h
178 26-05-2014 09:00:00 15.65 C 11.29 g/m*3 15.65 C 0.13333 km/h
179 26-05-2014 10:00:00 16.44167 C 11.3 g/m*3 16.44 C 3.6 km/h
180 26-05-2014 11:00:00 17.85833 C 11.38 g/m*3 17.86 C 7.25 km/h
181 26-05-2014 12:00:00 18.15833 C 11.76 g/m*3 18.16 C 7.775 km/h
182 26-05-2014 13:00:00 19.66667 C 12.23 g/m*3 19.67 C 8.875 km/h
183 26-05-2014 14:00:00 20.41667 C 12.19 g/m*3 20.42 C 9.825 km/h
184 26-05-2014 15:00:00 21.19167 C 12.12 g/m*3 21.19 C 6.16667 km/h
185 26-05-2014 16:00:00 21.86667 C 12.26 g/m*3 21.87 C 6.45 km/h
186 26-05-2014 17:00:00 21.60833 C 12.46 g/m*3 21.61 C 4.13333 km/h
187 26-05-2014 18:00:00 20.75833 C 13.04 g/m*3 20.76 C 2.26667 km/h
188 26-05-2014 19:00:00 19.8 C 13.14 g/m*3 19.8 C 0 km/h
189 26-05-2014 20:00:00 18.575 C 12.87 g/m*3 18.58 C 0.4 km/h
190 26-05-2014 21:00:00 17.38333 C 12.58 g/m*3 17.38 C 0.26667 km/h
191 26-05-2014 22:00:00 17.29167 C 12.76 g/m*3 17.29 C 0.53333 km/h
192 26-05-2014 23:00:00 16.46667 C 13 g/m*3 16.47 C 1.33333 km/h
193 27-05-2014 00:00:00 15.84 C 12.79 g/m*3 15.84 C 0 km/h
194 27-05-2014 01:00:00 15.31667 C 12.52 g/m*3 15.32 C 0 km/h
195 27-05-2014 02:00:00 14.81667 C 12.23 g/m*3 14.82 C 0 km/h
196 27-05-2014 03:00:00 14.74167 C 12.22 g/m*3 14.74 C 0 km/h
197 27-05-2014 04:00:00 14.68333 C 12.2 g/m*3 14.68 C 0 km/h
198 27-05-2014 05:00:00 14.43333 C 12.02 g/m*3 14.43 C 0 km/h
199 27-05-2014 06:00:00 14.46667 C 12.05 g/m*3 14.47 C 0 km/h
200 27-05-2014 07:00:00 14.875 C 12.47 g/m*3 14.88 C 1.6 km/h
Sensor: Nr:Datum:Temp:Abs-Feuchte:Windchill:Wind:
Aussen-T/F 201 27-05-2014 08:00:00 14.95833 C 12.43 g/m*3 14.96 C 2.28333 km/h
202 27-05-2014 09:00:00 14.75833 C 12.17 g/m*3 14.76 C 5.23333 km/h
203 27-05-2014 10:00:00 14.9 C 12.12 g/m*3 14.9 C 4.54167 km/h
204 27-05-2014 11:00:00 15.36667 C 12.34 g/m*3 15.37 C 2.80833 km/h
205 27-05-2014 12:00:00 15.575 C 12.25 g/m*3 15.58 C 6.69167 km/h
206 27-05-2014 13:00:00 17.35 C 12.84 g/m*3 17.35 C 7.08 km/h
207 27-05-2014 14:00:00 18.4 C 15.73 g/m*3 18.4 C 9.7 km/h
208 27-05-2014 15:00:00 16.36667 C 11.7 g/m*3 16.37 C 5.08333 km/h
209 27-05-2014 16:00:00 16.2 C 11.69 g/m*3 16.2 C 2.88 km/h
210 27-05-2014 17:00:00 15.31429 C 12.29 g/m*3 15.31 C 2.28571 km/h
211 27-05-2014 18:00:00 16.4 C 13.96 g/m*3 16.4 C 7.25 km/h
212 27-05-2014 19:00:00 15.38 C 12.7 g/m*3 15.38 C 0 km/h
213 27-05-2014 20:00:00 15.09167 C 12.2 g/m*3 15.09 C 1.86667 km/h
214 27-05-2014 21:00:00 14.52727 C 11.38 g/m*3 14.53 C 3.64545 km/h
215 28-05-2014 10:00:00 15.6 C 13.3 g/m*3 15.6 C 6.76 km/h
216 28-05-2014 11:00:00 15.6 C 13.3 g/m*3 15.6 C 8.05 km/h
217 28-05-2014 17:00:00 16.35 C 11.29 g/m*3 16.35 C 0.53333 km/h
218 28-05-2014 18:00:00 16.81667 C 11.59 g/m*3 16.82 C 0.26667 km/h
219 28-05-2014 19:00:00 16.15833 C 11.55 g/m*3 16.16 C 0.53333 km/h
220 28-05-2014 20:00:00 15.28333 C 11.36 g/m*3 15.28 C 0.66667 km/h
221 28-05-2014 21:00:00 13.46667 C 10.5 g/m*3 13.47 C 0.4 km/h
222 28-05-2014 22:00:00 12.54167 C 10.16 g/m*3 12.54 C 0 km/h
223 28-05-2014 23:00:00 11.74167 C 9.76 g/m*3 11.74 C 0 km/h
224 29-05-2014 00:00:00 11.16667 C 9.57 g/m*3 11.17 C 0 km/h
225 29-05-2014 01:00:00 10.63333 C 9.31 g/m*3 10.63 C 0.26667 km/h
Sensor: Nr:Datum:Temp:Abs-Feuchte:Windchill:Wind:
Aussen-T/F 226 29-05-2014 02:00:00 10.14167 C 9.1 g/m*3 10.14 C 0.13333 km/h
227 29-05-2014 03:00:00 9.84167 C 8.93 g/m*3 9.84 C 0 km/h
228 29-05-2014 04:00:00 9.73333 C 8.93 g/m*3 9.73 C 0.93333 km/h
229 29-05-2014 05:00:00 9.51667 C 8.79 g/m*3 9.52 C 1.74167 km/h
230 29-05-2014 06:00:00 9.525 C 8.84 g/m*3 9.53 C 4.00833 km/h
231 29-05-2014 07:00:00 9.725 C 8.96 g/m*3 9.05 C 6.425 km/h
232 29-05-2014 08:00:00 10.43333 C 9.35 g/m*3 10.43 C 4 km/h
233 29-05-2014 09:00:00 11.81667 C 9.97 g/m*3 11.82 C 3.2 km/h
234 29-05-2014 10:00:00 13.975 C 10.86 g/m*3 13.98 C 1.6 km/h
235 29-05-2014 11:00:00 15.875 C 11.31 g/m*3 15.88 C 2.26667 km/h
236 29-05-2014 12:00:00 17.50833 C 11.42 g/m*3 17.51 C 4.81667 km/h
237 29-05-2014 13:00:00 18.86667 C 11.32 g/m*3 18.87 C 9.15833 km/h
238 29-05-2014 14:00:00 18.81667 C 11.14 g/m*3 18.82 C 9.68333 km/h
239 29-05-2014 15:00:00 17.90833 C 10.94 g/m*3 17.91 C 9.825 km/h
240 29-05-2014 16:00:00 16.875 C 10.68 g/m*3 16.88 C 8.35 km/h
241 29-05-2014 17:00:00 16.40833 C 10.66 g/m*3 16.41 C 8.61667 km/h
242 29-05-2014 18:00:00 15.65 C 10.68 g/m*3 15.65 C 6.3 km/h
243 29-05-2014 19:00:00 14.85 C 10.82 g/m*3 14.85 C 3.46667 km/h
244 29-05-2014 20:00:00 14.375 C 10.8 g/m*3 14.38 C 2 km/h
245 29-05-2014 21:00:00 13.68333 C 10.9 g/m*3 13.68 C 0.13333 km/h
246 29-05-2014 22:00:00 13.05 C 9.96 g/m*3 13.05 C 6.71667 km/h
247 29-05-2014 23:00:00 12.34167 C 9.35 g/m*3 12.34 C 7.375 km/h
248 30-05-2014 00:00:00 11.85833 C 9.01 g/m*3 11.86 C 6.85 km/h
249 30-05-2014 01:00:00 11.325 C 8.63 g/m*3 11.33 C 8.325 km/h
250 30-05-2014 02:00:00 11.1 C 8.48 g/m*3 11.1 C 3.2 km/h
Sensor: Nr:Datum:Temp:Abs-Feuchte:Windchill:Wind:
Aussen-T/F 251 30-05-2014 03:00:00 10.9 C 8.3 g/m*3 10.9 C 3.33333 km/h
252 30-05-2014 04:00:00 10.68333 C 8.1 g/m*3 10.68 C 2.13333 km/h
253 30-05-2014 05:00:00 10.45 C 8.05 g/m*3 10.45 C 0.93333 km/h
254 30-05-2014 06:00:00 10.35833 C 7.87 g/m*3 10.36 C 3.46667 km/h
255 30-05-2014 07:00:00 10.69167 C 7.7 g/m*3 10.69 C 4.01667 km/h
256 30-05-2014 08:00:00 11.86667 C 7.64 g/m*3 11.87 C 6.84167 km/h
257 30-05-2014 09:00:00 12.55 C 7.34 g/m*3 12.55 C 9.01667 km/h
258 30-05-2014 10:00:00 14.34167 C 7.87 g/m*3 14.34 C 10.89167 km/h
259 30-05-2014 11:00:00 14.68333 C 7.92 g/m*3 14.68 C 9.425 km/h
260 30-05-2014 12:00:00 15.8 C 7.82 g/m*3 15.8 C 10.09167 km/h
261 30-05-2014 13:00:00 17.11667 C 8.28 g/m*3 17.12 C 12.1 km/h
262 30-05-2014 14:00:00 17.38333 C 7.97 g/m*3 17.38 C 10.89167 km/h
263 30-05-2014 15:00:00 16.83333 C 7.94 g/m*3 16.83 C 11.56667 km/h
264 30-05-2014 16:00:00 17.09167 C 8.15 g/m*3 17.09 C 8.73333 km/h
265 30-05-2014 17:00:00 16.16667 C 8.01 g/m*3 16.17 C 11.16667 km/h
266 30-05-2014 18:00:00 16.51667 C 7.96 g/m*3 16.52 C 9.825 km/h
267 30-05-2014 19:00:00 15.29167 C 7.76 g/m*3 15.29 C 9.28333 km/h
268 30-05-2014 20:00:00 14.26667 C 7.7 g/m*3 14.27 C 1.6 km/h
269 30-05-2014 21:00:00 11.56667 C 7.93 g/m*3 11.57 C 0.53333 km/h
270 30-05-2014 22:00:00 9.91667 C 7.61 g/m*3 9.92 C 0.13333 km/h
271 30-05-2014 23:00:00 8.8 C 7.44 g/m*3 8.8 C 0 km/h
272 31-05-2014 00:00:00 7.99167 C 7.24 g/m*3 7.99 C 0 km/h
273 31-05-2014 01:00:00 7.425 C 7.19 g/m*3 7.43 C 0 km/h
274 31-05-2014 02:00:00 6.925 C 7.11 g/m*3 6.93 C 0.26667 km/h
275 31-05-2014 03:00:00 6.44167 C 6.99 g/m*3 6.44 C 0 km/h
Sensor: Nr:Datum:Temp:Abs-Feuchte:Windchill:Wind:
Aussen-T/F 276 31-05-2014 04:00:00 5.99167 C 6.86 g/m*3 5.99 C 0.13333 km/h
277 31-05-2014 05:00:00 5.53333 C 6.69 g/m*3 5.53 C 0.13333 km/h
278 31-05-2014 06:00:00 5.53333 C 6.73 g/m*3 5.53 C 2.53333 km/h
279 31-05-2014 07:00:00 6.20833 C 7.06 g/m*3 6.21 C 2.13333 km/h
280 31-05-2014 08:00:00 8.59167 C 7.89 g/m*3 8.59 C 0 km/h
281 31-05-2014 09:00:00 10.38333 C 8.52 g/m*3 10.38 C 0.26667 km/h
282 31-05-2014 10:00:00 13.88333 C 9.59 g/m*3 13.88 C 0.26667 km/h
283 31-05-2014 11:00:00 17.58333 C 9.91 g/m*3 17.58 C 4.14167 km/h
284 31-05-2014 12:00:00 19.075 C 8.92 g/m*3 19.08 C 7.4 km/h
285 31-05-2014 13:00:00 20.08333 C 8.84 g/m*3 20.08 C 6.15833 km/h
286 31-05-2014 14:00:00 19.80833 C 8.3 g/m*3 19.81 C 5.60833 km/h
287 31-05-2014 15:00:00 20.48333 C 8.74 g/m*3 20.48 C 3.86667 km/h
288 31-05-2014 16:00:00 19.4 C 9.29 g/m*3 19.4 C 3.60833 km/h
289 31-05-2014 17:00:00 20.05833 C 9.22 g/m*3 20.06 C 6.05 km/h
290 31-05-2014 18:00:00 21 C 8.64 g/m*3 21 C 5.33333 km/h
291 31-05-2014 19:00:00 21.05 C 8.21 g/m*3 21.05 C 6.975 km/h
292 31-05-2014 20:00:00 17.11667 C 10.18 g/m*3 17.12 C 0.26667 km/h
293 31-05-2014 21:00:00 14.45833 C 9.58 g/m*3 14.46 C 0.8 km/h
294 31-05-2014 22:00:00 13.525 C 9.32 g/m*3 13.53 C 0 km/h
295 31-05-2014 23:00:00 13.14167 C 9.19 g/m*3 13.14 C 0 km/h
296 01-06-2014 00:00:00 12.4 C 9 g/m*3 12.4 C 0 km/h
297 01-06-2014 01:00:00 12.20833 C 8.96 g/m*3 12.21 C 0.26667 km/h
298 01-06-2014 02:00:00 11.46667 C 8.73 g/m*3 11.47 C 0.13333 km/h
299 01-06-2014 03:00:00 10.46667 C 8.44 g/m*3 10.47 C 0.26667 km/h
300 01-06-2014 04:00:00 10.24167 C 8.52 g/m*3 10.24 C 0 km/h
Sensor: Nr:Datum:Temp:Abs-Feuchte:Windchill:Wind:
Aussen-T/F 301 01-06-2014 05:00:00 10.43333 C 8.7 g/m*3 10.43 C 0.26667 km/h
302 01-06-2014 06:00:00 11.49167 C 8.86 g/m*3 11.49 C 1.86667 km/h
303 01-06-2014 07:00:00 12.125 C 8.93 g/m*3 12.13 C 1.46667 km/h
304 01-06-2014 08:00:00 13.00833 C 9.18 g/m*3 13.01 C 1.46667 km/h
305 01-06-2014 09:00:00 14.00833 C 9.51 g/m*3 14.01 C 2.66667 km/h
306 01-06-2014 10:00:00 16.35833 C 9.7 g/m*3 16.36 C 4.54167 km/h
307 01-06-2014 11:00:00 18.25 C 9.55 g/m*3 18.25 C 7.39167 km/h
308 01-06-2014 12:00:00 19.86667 C 9.55 g/m*3 19.87 C 8.33333 km/h
309 01-06-2014 13:00:00 20.75833 C 9.35 g/m*3 20.76 C 8.61667 km/h
310 01-06-2014 14:00:00 20.36 C 8.79 g/m*3 20.36 C 10.34 km/h
311 01-06-2014 15:00:00 21.95556 C 8.86 g/m*3 21.96 C 11.65556 km/h
312 01-06-2014 16:00:00 20.96667 C 8.8 g/m*3 20.97 C 10.76667 km/h
313 01-06-2014 17:00:00 20.24167 C 8.5 g/m*3 20.24 C 10.225 km/h
314 01-06-2014 18:00:00 19.425 C 8.15 g/m*3 19.43 C 8.475 km/h
315 01-06-2014 19:00:00 19.1 C 8.11 g/m*3 19.1 C 6.84167 km/h
316 01-06-2014 20:00:00 17.80833 C 8.57 g/m*3 17.81 C 2 km/h
317 01-06-2014 21:00:00 15.69167 C 9.46 g/m*3 15.69 C 0.13333 km/h
318 01-06-2014 22:00:00 15.03333 C 9.35 g/m*3 15.03 C 0.4 km/h
319 01-06-2014 23:00:00 13.98333 C 9.02 g/m*3 13.98 C 0.4 km/h

Maximal/Minimal-Werte vom 19.05.2014 - 01.06.2014

Sensor Min Max Avg
Temp
(Aussen-T/F)
5.3 °C
31-05-2014  05:55:00
30.1 °C
20-05-2014  16:00:00
16.2 °C
Abs-Feuchte
(Aussen-T/F)
6.69 g/m*3
31-05-2014  05:00:00
15.73 g/m*3
27-05-2014  14:00:00
10.28 g/m*3
Windchill
(Aussen-T/F)
5.53 C
31-05-2014  05:00:00
29.27 C
20-05-2014  16:00:00
16.17 C

Die Daten stammen von einer Davis Vantage Pro 2 Wetter-Station und werden unter Linux mit der Software wview2wettercgi und aufbereitet. Alle Angaben erfolgen ohne Gewähr für ihre Vollständigkeit oder Richtigkeit.
Kontakt: Rainer Krienke krienke@uni-koblenz.de . Meine Webseiten an der Uni Koblenz oder privat.
Version: $Revision: 0.78 $